Alto, NM

2:01 PM MDT on October 21, 2014 (GMT -0600)
Little Creek | Change Station
CLOSE
Current Station
Personal Weather Station
Location: Alto, NM
Elevation: 7182 ft
Nearby Weather Stations

Elev 7182 ft 33.41 °N, 105.66 °W | Updated 37 minutes ago

Mostly Cloudy
Mostly Cloudy
61.3 °F
Feels Like 61.3 °F
N
5.8
Wind Variable Wind from ESE

Today
High -- | Low -- °F
--% Chance of Precip.
Yesterday
High -- | Low -- °F
Precip. -- in
7:12 AM 6:21 PM
Waning Crescent, 4% visible
Pressure 30.19 in
Visibility 10.0 miles
Clouds Few 3200 ft
Mostly Cloudy 4200 ft
Mostly Cloudy 5000 ft
Dew Point 47 °F
Humidity 59%
Rainfall 0.04 in
Snow Depth Not available.
UV 3 out of 12
Pollen 4.60 out of 12
Air Quality Not available.
Flu Activity Sporadic
METAR KSRR 212055Z AUTO 12006KT 10SM FEW032 BKN042 BKN050 12/09 A3019 RMK AO2

More Conditions Fewer Conditions

Pressure 30.19 in
Visibility 10.0 miles
Clouds Few 3200 ft
Mostly Cloudy 4200 ft
Mostly Cloudy 5000 ft
Dew Point 47 °F
Humidity 59%
Rainfall 0.04 in
Snow Depth Not available.
UV 3 out of 12
Pollen 4.60 out of 12
Air Quality Not available.
Flu Activity Sporadic
METAR KSRR 212055Z AUTO 12006KT 10SM FEW032 BKN042 BKN050 12/09 A3019 RMK AO2

More Conditions Fewer Conditions

Nowcast | as of 1:53 PM MDT on October 21, 2014

Showers and a couple of thunderstorms will continue to increase in coverage through the afternoon over central New Mexico. Expect light to occasionally moderate rain with amounts around one tenth to one quarter of an inch through 4 PM...locally higher amounts are possible. Locations impacted include Mountainair...Manzano...Clines Corners...Santa Fe...Cowles...Espanola...Canones and Canjilon.

×

10-Day Weather Forecast

Almanac

Astronomy

Oct. 21, 2014 Rise Set
Actual Time 7:12 AM MDT 6:21 PM MDT
Civil Twilight 6:46 AM MDT 6:47 PM MDT
Nautical Twilight 6:17 AM MDT 7:16 PM MDT
Astronomical Twilight 5:49 AM MDT 7:44 PM MDT
Moon 5:05 AM MDT 5:12 PM MDT
Length of Visible Light 12h 00m
Length of Day
11h 09m
Tomorrow will be 1m 55s shorter.
Waning Crescent, 4% of the Moon is Illuminated
Today
Waning Crescent
Oct 23
New
Oct 30
First Quarter
Nov 6
Full
Nov 14
Last Quarter

Today's Extremes

State Highs State Lows

Community

WunderPhotos

Upload Photos

1,763,757 photos uploaded!

Nearby

Snow Depth

Station Depth Elevation
McKnight Cabin 0 in 9240 ft
Santa Fe 0 in 11445 ft
Wesner Springs 3 in 11120 ft
Elk Cabin 0 in 8210 ft
Silver Creek Divide 1 in 9000 ft

Earthquake Activity

City Distance Mag. Time & Date
No recent earthquake activity has been reported nearby.
Minimum magnitude displayed is 2.5.

Coastal Water Temperatures

Place Temperature
No Stations Reporting

Nearby Weather Stations